createdAt,value
2023-05-03T00:01:28.090Z,9.80
2023-05-03T00:03:58.368Z,5.70
2023-05-03T00:06:28.831Z,4.60
2023-05-03T00:08:59.535Z,4.10
2023-05-03T00:11:29.832Z,4.90
2023-05-03T00:14:01.137Z,8.30
2023-05-03T00:16:31.955Z,7.10
2023-05-03T00:19:02.309Z,4.60
2023-05-03T00:21:32.852Z,6.80
2023-05-03T00:24:03.797Z,5.90
2023-05-03T00:26:34.479Z,6.20
2023-05-03T00:29:04.880Z,8.00
2023-05-03T00:31:35.429Z,7.50
2023-05-03T00:34:05.988Z,6.60
2023-05-03T00:36:37.230Z,9.50
2023-05-03T00:39:07.685Z,8.80
2023-05-03T00:41:38.043Z,6.10
2023-05-03T00:44:08.415Z,7.10
2023-05-03T00:46:38.965Z,9.60
2023-05-03T00:49:10.142Z,5.40
2023-05-03T00:51:42.121Z,4.30
2023-05-03T00:54:13.586Z,6.60
2023-05-03T00:56:51.555Z,3.40
2023-05-03T00:59:23.049Z,10.10
2023-05-03T01:01:54.246Z,7.10
2023-05-03T01:04:25.482Z,4.80
2023-05-03T01:07:04.951Z,5.20
2023-05-03T01:09:40.727Z,6.70
2023-05-03T01:12:21.795Z,3.80
2023-05-03T01:15:01.217Z,5.00
2023-05-03T01:17:40.945Z,4.00
2023-05-03T01:20:15.122Z,5.60
2023-05-03T01:22:52.072Z,7.00
2023-05-03T01:25:23.150Z,5.50
2023-05-03T01:27:53.470Z,3.80
2023-05-03T01:30:27.992Z,7.20
2023-05-03T01:33:06.783Z,5.30
2023-05-03T01:35:45.389Z,5.80
2023-05-03T01:38:17.566Z,8.00
2023-05-03T01:40:53.237Z,4.80
2023-05-03T01:43:24.374Z,5.60
2023-05-03T01:45:55.077Z,6.00
2023-05-03T01:48:29.055Z,10.20
2023-05-03T01:51:00.278Z,6.60
2023-05-03T01:53:30.875Z,7.40
2023-05-03T01:56:01.190Z,8.50
2023-05-03T01:58:31.581Z,5.00
2023-05-03T02:01:02.635Z,4.80
2023-05-03T02:03:33.616Z,7.60
2023-05-03T02:06:03.875Z,6.80
2023-05-03T02:08:34.413Z,7.00
2023-05-03T02:11:04.737Z,3.50
2023-05-03T02:13:36.043Z,6.10
2023-05-03T02:16:06.770Z,4.90
2023-05-03T02:18:37.568Z,7.90
2023-05-03T02:21:09.918Z,3.00
2023-05-03T02:23:40.326Z,4.30
2023-05-03T02:26:12.061Z,5.70
2023-05-03T02:28:42.470Z,8.60
2023-05-03T02:31:13.589Z,6.00
2023-05-03T02:33:45.210Z,5.80
2023-05-03T02:36:15.529Z,4.70
2023-05-03T02:38:52.816Z,7.30
2023-05-03T02:41:23.204Z,6.10
2023-05-03T02:43:55.135Z,6.80
2023-05-03T02:46:25.886Z,8.40
2023-05-03T02:48:56.270Z,7.50
2023-05-03T02:51:27.472Z,6.60
2023-05-03T02:54:00.068Z,4.60
2023-05-03T02:56:30.750Z,5.40
2023-05-03T02:59:01.521Z,7.90
2023-05-03T03:01:32.857Z,5.70
2023-05-03T03:04:03.566Z,6.00
2023-05-03T03:06:35.858Z,6.70
2023-05-03T03:09:06.452Z,5.60
2023-05-03T03:11:39.165Z,3.60
2023-05-03T03:14:12.181Z,5.40
2023-05-03T03:16:42.577Z,7.20
2023-05-03T03:19:13.017Z,7.20
2023-05-03T03:21:45.045Z,5.70
2023-05-03T03:24:15.850Z,8.20
2023-05-03T03:26:46.547Z,4.10
2023-05-03T03:29:16.870Z,7.50
2023-05-03T03:31:47.509Z,5.60
2023-05-03T03:34:19.182Z,5.90
2023-05-03T03:36:49.609Z,8.40
2023-05-03T03:39:20.320Z,6.50
2023-05-03T03:41:51.745Z,5.00
2023-05-03T03:44:22.745Z,6.20
2023-05-03T03:46:53.361Z,7.40
2023-05-03T03:49:23.978Z,10.70
2023-05-03T03:51:54.359Z,7.80
2023-05-03T03:54:25.085Z,4.60
2023-05-03T03:56:56.107Z,6.00
2023-05-03T03:59:26.737Z,8.00
2023-05-03T04:01:58.170Z,3.80
2023-05-03T04:04:28.814Z,9.20
2023-05-03T04:06:59.686Z,2.80
2023-05-03T04:09:31.094Z,4.30
2023-05-03T04:12:03.428Z,5.80
2023-05-03T04:14:34.454Z,4.70
2023-05-03T04:17:05.006Z,11.40
2023-05-03T04:19:35.820Z,4.50
2023-05-03T04:22:07.232Z,7.60
2023-05-03T04:24:39.800Z,8.50
2023-05-03T04:27:11.522Z,6.80
2023-05-03T04:29:42.834Z,4.70
2023-05-03T04:32:14.467Z,6.40
2023-05-03T04:34:48.513Z,6.70
2023-05-03T04:37:20.417Z,5.70
2023-05-03T04:39:51.129Z,4.50
2023-05-03T04:42:22.350Z,4.80
2023-05-03T04:44:53.179Z,7.20
2023-05-03T04:47:25.376Z,8.30
2023-05-03T04:49:56.653Z,4.70
2023-05-03T04:52:27.552Z,5.10
2023-05-03T04:54:58.228Z,4.80
2023-05-03T04:57:28.657Z,4.40
2023-05-03T04:59:58.958Z,6.80
2023-05-03T05:02:29.418Z,7.60
2023-05-03T05:05:01.330Z,4.60
2023-05-03T05:07:32.934Z,6.70
2023-05-03T05:10:03.483Z,4.30
2023-05-03T05:12:34.565Z,5.10
2023-05-03T05:15:08.929Z,6.30
2023-05-03T05:17:39.910Z,6.50
2023-05-03T05:20:13.377Z,6.10
2023-05-03T05:22:46.951Z,4.60
2023-05-03T05:25:17.367Z,9.30
2023-05-03T05:27:48.867Z,3.90
2023-05-03T05:30:19.867Z,3.40
2023-05-03T05:32:50.597Z,5.80
2023-05-03T05:35:21.123Z,5.80
2023-05-03T05:37:51.458Z,5.30
2023-05-03T05:40:22.595Z,5.20
2023-05-03T05:42:56.723Z,5.80
2023-05-03T05:45:28.060Z,8.50
2023-05-03T05:47:59.331Z,4.80
2023-05-03T05:50:31.498Z,6.90
2023-05-03T05:53:05.001Z,5.80
2023-05-03T05:55:38.943Z,4.70
2023-05-03T05:58:12.192Z,6.30
2023-05-03T06:00:48.917Z,4.40
2023-05-03T06:03:19.901Z,4.70
2023-05-03T06:05:52.633Z,5.00
2023-05-03T06:08:23.831Z,6.20
2023-05-03T06:10:54.354Z,3.10
2023-05-03T06:13:25.923Z,4.40
2023-05-03T06:15:56.269Z,4.60
2023-05-03T06:18:27.806Z,7.50
2023-05-03T06:20:58.283Z,5.60
2023-05-03T06:23:28.824Z,4.80
2023-05-03T06:26:00.543Z,6.30
2023-05-03T06:28:30.979Z,6.40
2023-05-03T06:31:01.453Z,4.70
2023-05-03T06:33:33.584Z,4.70
2023-05-03T06:36:04.058Z,4.70
2023-05-03T06:38:34.433Z,5.70
2023-05-03T06:41:04.844Z,7.00
2023-05-03T06:43:35.292Z,4.40
2023-05-03T06:46:08.967Z,3.00
2023-05-03T06:48:39.379Z,3.40
2023-05-03T06:51:09.892Z,3.50
2023-05-03T06:53:40.302Z,7.00
2023-05-03T06:56:11.280Z,4.80
2023-05-03T06:58:41.607Z,4.10
2023-05-03T07:01:12.028Z,5.10
2023-05-03T07:03:42.564Z,6.20
2023-05-03T07:06:13.208Z,6.90
2023-05-03T07:08:43.638Z,4.30
2023-05-03T07:11:13.967Z,2.90
2023-05-03T07:13:44.329Z,4.90
2023-05-03T07:16:14.649Z,5.20
2023-05-03T07:18:45.059Z,5.30
2023-05-03T07:21:15.736Z,4.50
2023-05-03T07:23:46.176Z,5.10
2023-05-03T07:26:16.554Z,3.50
2023-05-03T07:28:46.904Z,4.10
2023-05-03T07:31:17.599Z,4.70
2023-05-03T07:33:48.071Z,3.10
2023-05-03T07:36:18.737Z,4.60
2023-05-03T07:38:49.078Z,4.20
2023-05-03T07:41:19.587Z,3.80
2023-05-03T07:43:50.093Z,6.40
2023-05-03T07:46:20.672Z,6.10
2023-05-03T07:48:51.100Z,2.80
2023-05-03T07:51:21.911Z,5.10
2023-05-03T07:53:52.225Z,6.00
2023-05-03T07:56:22.627Z,3.00
2023-05-03T07:59:04.705Z,2.50
2023-05-03T08:01:40.131Z,2.50
2023-05-03T08:04:10.692Z,4.10
2023-05-03T08:06:42.673Z,4.30
2023-05-03T08:09:14.103Z,2.70
2023-05-03T08:11:44.558Z,4.30
2023-05-03T08:14:15.087Z,3.40
2023-05-03T08:16:45.455Z,2.90
2023-05-03T08:19:15.907Z,3.10
2023-05-03T08:21:47.139Z,3.00
2023-05-03T08:24:17.588Z,2.50
2023-05-03T08:26:48.418Z,4.10
2023-05-03T08:29:18.870Z,3.40
2023-05-03T08:31:49.311Z,3.90
2023-05-03T08:34:19.899Z,2.50
2023-05-03T08:36:50.346Z,3.20
2023-05-03T08:39:20.832Z,2.30
2023-05-03T08:41:51.331Z,4.20
2023-05-03T08:44:23.690Z,2.90
2023-05-03T08:46:54.207Z,4.10
2023-05-03T08:49:25.351Z,2.60
2023-05-03T08:51:57.787Z,7.80
2023-05-03T08:54:28.474Z,6.30
2023-05-03T08:56:58.815Z,2.00
2023-05-03T08:59:29.676Z,4.20
2023-05-03T09:02:00.386Z,6.70
2023-05-03T09:04:36.086Z,3.80
2023-05-03T09:07:16.027Z,4.00
2023-05-03T09:09:47.357Z,2.80
2023-05-03T09:12:36.811Z,1.70
2023-05-03T09:15:08.953Z,5.10
2023-05-03T09:17:39.361Z,3.80
2023-05-03T09:20:11.998Z,5.10
2023-05-03T09:22:53.687Z,5.40
2023-05-03T09:25:24.037Z,3.80
2023-05-03T09:28:04.321Z,3.10
2023-05-03T09:30:35.230Z,3.80
2023-05-03T09:33:05.975Z,2.50
2023-05-03T09:35:36.567Z,5.30
2023-05-03T09:38:07.213Z,3.10
2023-05-03T09:40:49.038Z,5.30
2023-05-03T09:43:19.801Z,5.00
2023-05-03T09:45:50.617Z,3.70
2023-05-03T09:48:23.515Z,2.60
2023-05-03T09:50:54.295Z,2.20
2023-05-03T09:53:26.079Z,6.30
2023-05-03T09:55:57.907Z,6.00
2023-05-03T09:58:30.951Z,3.80
2023-05-03T10:01:01.430Z,4.10
2023-05-03T10:03:42.128Z,3.20
2023-05-03T10:06:29.274Z,4.10
2023-05-03T10:09:08.672Z,5.60
2023-05-03T10:11:39.526Z,4.50
2023-05-03T10:14:09.893Z,3.80
2023-05-03T10:16:45.416Z,8.00
2023-05-03T10:19:18.685Z,2.70
2023-05-03T10:22:04.436Z,3.10
2023-05-03T10:24:35.542Z,1.90
2023-05-03T10:27:09.403Z,1.30
2023-05-03T10:29:58.287Z,5.30
2023-05-03T10:32:33.638Z,2.70
2023-05-03T10:35:08.200Z,4.20
2023-05-03T10:37:41.691Z,3.20
2023-05-03T10:40:15.951Z,3.50
2023-05-03T10:42:53.504Z,2.00
2023-05-03T10:45:26.225Z,3.90
2023-05-03T10:48:23.390Z,2.10
2023-05-03T10:50:54.066Z,3.50
2023-05-03T10:53:43.355Z,3.90
2023-05-03T10:56:15.722Z,3.90
2023-05-03T10:58:47.839Z,4.40
2023-05-03T11:01:20.210Z,4.20
2023-05-03T11:04:00.064Z,3.80
2023-05-03T11:06:33.772Z,3.60
2023-05-03T11:09:07.017Z,3.90
2023-05-03T11:11:40.937Z,3.00
2023-05-03T11:14:13.716Z,4.30
2023-05-03T11:16:50.789Z,4.40
2023-05-03T11:19:21.872Z,2.30
2023-05-03T11:21:52.674Z,1.60
2023-05-03T11:24:22.981Z,3.70
2023-05-03T11:26:53.372Z,4.10
2023-05-03T11:29:25.146Z,4.20
2023-05-03T11:31:56.877Z,4.20
2023-05-03T11:34:27.371Z,2.70
2023-05-03T11:36:58.626Z,3.80
2023-05-03T11:39:33.341Z,3.20
2023-05-03T11:42:07.507Z,3.10
2023-05-03T11:44:38.618Z,5.20
2023-05-03T11:47:09.348Z,2.00
2023-05-03T11:49:39.983Z,4.60
2023-05-03T11:52:10.525Z,2.90
2023-05-03T11:54:41.290Z,3.70
2023-05-03T11:57:16.161Z,5.30
2023-05-03T11:59:46.599Z,3.20
2023-05-03T12:02:17.517Z,5.00
2023-05-03T12:04:48.654Z,3.40
2023-05-03T12:07:22.045Z,4.60
2023-05-03T12:10:07.135Z,4.20
2023-05-03T12:12:56.771Z,4.60
2023-05-03T12:15:33.813Z,5.70
2023-05-03T12:23:11.156Z,5.70
2023-05-03T12:25:44.365Z,5.10
2023-05-03T12:28:20.472Z,2.30
2023-05-03T12:30:53.478Z,2.90
2023-05-03T12:33:24.238Z,3.00
2023-05-03T12:35:54.875Z,1.90
2023-05-03T12:38:25.825Z,4.00
2023-05-03T12:40:56.609Z,2.60
2023-05-03T12:43:27.255Z,3.20
2023-05-03T12:46:25.087Z,4.30
2023-05-03T12:48:53.491Z,3.00
2023-05-03T12:51:26.231Z,3.50
2023-05-03T12:53:59.932Z,3.00
2023-05-03T12:59:31.758Z,3.70
2023-05-03T13:07:03.101Z,2.40
2023-05-03T13:10:12.047Z,2.20
2023-05-03T13:12:25.693Z,3.00
2023-05-03T13:14:56.976Z,3.40
2023-05-03T13:17:27.401Z,2.50
2023-05-03T13:19:58.093Z,1.60
2023-05-03T13:22:28.789Z,4.60
2023-05-03T13:24:59.084Z,3.20
2023-05-03T13:27:29.440Z,2.40
2023-05-03T13:30:01.835Z,2.80
2023-05-03T13:32:33.405Z,2.00
2023-05-03T13:35:05.483Z,2.80
2023-05-03T13:37:36.331Z,2.20
2023-05-03T13:40:08.466Z,3.10
2023-05-03T13:42:38.876Z,5.70
2023-05-03T13:45:11.221Z,2.60
2023-05-03T13:48:05.156Z,4.20
2023-05-03T13:50:32.692Z,3.10
2023-05-03T13:53:03.033Z,5.20
2023-05-03T13:55:33.352Z,2.90
2023-05-03T13:58:03.672Z,3.00
2023-05-03T14:00:34.098Z,3.80
2023-05-03T14:03:04.812Z,3.30
2023-05-03T14:05:36.092Z,1.90
2023-05-03T14:08:07.226Z,2.70
2023-05-03T14:10:39.433Z,2.80
2023-05-03T14:13:09.870Z,2.80
2023-05-03T14:15:43.155Z,3.80
2023-05-03T14:18:14.653Z,4.90
2023-05-03T14:20:45.216Z,5.00
2023-05-03T14:23:15.470Z,2.10
2023-05-03T14:25:46.179Z,2.40
2023-05-03T14:28:16.553Z,2.40
2023-05-03T14:30:46.949Z,1.70
2023-05-03T14:33:17.874Z,5.40
2023-05-03T14:35:48.138Z,4.20
2023-05-03T14:38:18.587Z,2.90
2023-05-03T14:40:49.091Z,6.30
2023-05-03T14:43:19.329Z,2.90
2023-05-03T14:45:49.638Z,3.40
2023-05-03T14:48:20.534Z,3.20
2023-05-03T14:50:54.711Z,2.20
2023-05-03T14:53:25.012Z,2.40
2023-05-03T14:55:55.318Z,3.00
2023-05-03T14:58:25.915Z,1.70
2023-05-03T15:00:56.277Z,1.60
2023-05-03T15:03:26.933Z,3.00
2023-05-03T15:05:57.444Z,6.20
2023-05-03T15:08:27.953Z,2.00
2023-05-03T15:10:58.234Z,3.20
2023-05-03T15:13:28.757Z,2.50
2023-05-03T15:15:59.345Z,4.30
2023-05-03T15:18:29.753Z,4.30
2023-05-03T15:21:00.155Z,2.70
2023-05-03T15:23:31.091Z,2.60
2023-05-03T15:26:01.492Z,3.20
2023-05-03T15:28:31.899Z,5.10
2023-05-03T15:31:02.865Z,4.20
2023-05-03T15:33:39.925Z,4.60
2023-05-03T15:36:12.011Z,3.40
2023-05-03T15:38:43.125Z,2.80
2023-05-03T15:41:13.558Z,1.20
2023-05-03T15:43:44.049Z,3.70
2023-05-03T15:46:14.666Z,3.60
2023-05-03T15:48:45.070Z,3.50
2023-05-03T15:51:15.493Z,3.00
2023-05-03T15:53:46.084Z,3.90
2023-05-03T15:56:17.100Z,3.20
2023-05-03T15:58:48.335Z,3.40
2023-05-03T16:01:19.628Z,5.90
2023-05-03T16:03:49.970Z,2.30
2023-05-03T16:06:20.669Z,4.00
2023-05-03T16:08:50.991Z,1.50
2023-05-03T16:11:22.947Z,4.20
2023-05-03T16:13:53.277Z,4.60
2023-05-03T16:16:23.714Z,4.00
2023-05-03T16:18:54.302Z,3.10
2023-05-03T16:21:24.692Z,2.00
2023-05-03T16:23:56.330Z,3.90
2023-05-03T16:26:26.937Z,2.90
2023-05-03T16:28:57.232Z,4.40
2023-05-03T16:31:29.552Z,1.90
2023-05-03T16:34:00.353Z,3.20
2023-05-03T16:36:32.796Z,6.10
2023-05-03T16:39:03.159Z,3.10
2023-05-03T16:41:33.492Z,4.10
2023-05-03T16:44:04.890Z,2.80
2023-05-03T16:46:36.649Z,3.60
2023-05-03T16:49:07.469Z,1.70
2023-05-03T16:51:39.632Z,2.30
2023-05-03T16:54:10.183Z,5.30
2023-05-03T16:56:40.523Z,3.40
2023-05-03T16:59:10.857Z,4.10
2023-05-03T17:01:41.223Z,3.60
2023-05-03T17:04:11.700Z,3.30
2023-05-03T17:06:42.017Z,4.20
2023-05-03T17:09:13.358Z,3.50
2023-05-03T17:11:43.732Z,2.40
2023-05-03T17:14:14.134Z,3.30
2023-05-03T17:16:46.838Z,2.90
2023-05-03T17:19:18.214Z,3.70
2023-05-03T17:21:48.960Z,2.70
2023-05-03T17:24:19.583Z,1.90
2023-05-03T17:26:49.876Z,3.30
2023-05-03T17:29:20.184Z,2.00
2023-05-03T17:31:50.552Z,1.70
2023-05-03T17:34:22.525Z,3.00
2023-05-03T17:36:56.128Z,4.20
2023-05-03T17:39:28.504Z,4.60
2023-05-03T17:41:58.799Z,3.70
2023-05-03T17:44:29.688Z,2.30
2023-05-03T17:47:00.573Z,4.00
2023-05-03T17:49:33.193Z,3.40
2023-05-03T17:52:04.788Z,4.10
2023-05-03T17:54:35.256Z,2.80
2023-05-03T17:57:05.719Z,3.90
2023-05-03T17:59:36.416Z,4.80
2023-05-03T18:02:07.388Z,3.40
2023-05-03T18:04:37.915Z,3.20
2023-05-03T18:07:08.347Z,3.30
2023-05-03T18:09:38.718Z,6.90
2023-05-03T18:12:09.766Z,3.20
2023-05-03T18:14:40.157Z,4.00
2023-05-03T18:17:10.523Z,4.20
2023-05-03T18:19:44.057Z,2.30
2023-05-03T18:22:14.458Z,4.20
2023-05-03T18:24:45.293Z,6.60
2023-05-03T18:27:15.723Z,3.70
2023-05-03T18:29:47.105Z,7.20
2023-05-03T18:32:17.822Z,4.20
2023-05-03T18:34:48.227Z,5.30
2023-05-03T18:37:19.024Z,3.70
2023-05-03T18:39:49.358Z,4.50
2023-05-03T18:42:21.335Z,5.60
2023-05-03T18:44:52.147Z,3.90
2023-05-03T18:47:22.499Z,4.40
2023-05-03T18:49:53.147Z,7.10
2023-05-03T18:52:24.147Z,3.20
2023-05-03T18:54:54.492Z,3.20
2023-05-03T18:57:24.923Z,4.30
2023-05-03T19:00:01.133Z,3.10
2023-05-03T19:02:32.042Z,2.50
2023-05-03T19:05:02.859Z,4.80
2023-05-03T19:07:33.857Z,2.50
2023-05-03T19:10:05.386Z,4.00
2023-05-03T19:12:36.331Z,3.60
2023-05-03T19:15:07.841Z,6.20
2023-05-03T19:17:40.450Z,3.20
2023-05-03T19:20:13.499Z,4.80
2023-05-03T19:22:44.119Z,3.20
2023-05-03T19:25:15.057Z,5.20
2023-05-03T19:27:45.490Z,3.90
2023-05-03T19:30:16.735Z,4.60
2023-05-03T19:32:47.760Z,5.60
2023-05-03T19:35:18.586Z,16.10
2023-05-03T19:37:48.981Z,3.80
2023-05-03T19:40:19.579Z,4.40
2023-05-03T19:42:52.152Z,4.70
2023-05-03T19:45:22.533Z,4.30
2023-05-03T19:47:52.845Z,2.60
2023-05-03T19:50:23.323Z,6.10
2023-05-03T19:52:55.587Z,3.30
2023-05-03T19:55:26.000Z,3.50
2023-05-03T19:57:56.302Z,8.00
2023-05-03T20:00:27.779Z,3.60
2023-05-03T20:02:58.167Z,2.10
2023-05-03T20:05:28.648Z,4.20
2023-05-03T20:07:59.030Z,4.40
2023-05-03T20:10:35.534Z,4.60
2023-05-03T20:13:06.549Z,2.30
2023-05-03T20:15:38.240Z,3.40
2023-05-03T20:18:08.673Z,3.10
2023-05-03T20:20:39.558Z,3.80
2023-05-03T20:23:11.906Z,3.10
2023-05-03T20:25:42.360Z,2.80
2023-05-03T20:28:13.080Z,6.00
2023-05-03T20:30:44.187Z,3.10
2023-05-03T20:33:14.747Z,5.50
2023-05-03T20:35:45.442Z,3.90
2023-05-03T20:38:15.951Z,5.00
2023-05-03T20:40:46.311Z,6.90
2023-05-03T20:43:17.569Z,7.40
2023-05-03T20:45:48.012Z,4.40
2023-05-03T20:48:18.504Z,6.60
2023-05-03T20:50:50.020Z,6.20
2023-05-03T20:53:20.362Z,6.90
2023-05-03T20:55:58.774Z,6.30
2023-05-03T20:58:29.402Z,8.90
2023-05-03T21:01:00.548Z,8.20
2023-05-03T21:03:31.047Z,5.20
2023-05-03T21:06:01.725Z,7.20
2023-05-03T21:08:32.143Z,6.50
2023-05-03T21:11:04.072Z,8.50
2023-05-03T21:13:35.764Z,7.80
2023-05-03T21:16:07.989Z,7.60
2023-05-03T21:18:38.469Z,10.30
2023-05-03T21:21:08.894Z,12.00
2023-05-03T21:23:40.424Z,8.30
2023-05-03T21:26:10.772Z,10.20
2023-05-03T21:28:41.140Z,9.10
2023-05-03T21:31:11.521Z,6.90
2023-05-03T21:33:41.848Z,9.30
2023-05-03T21:36:13.568Z,13.40
2023-05-03T21:38:43.968Z,9.60
2023-05-03T21:41:14.704Z,9.00
2023-05-03T21:43:45.459Z,10.40
2023-05-03T21:46:15.859Z,10.80
2023-05-03T21:48:46.625Z,11.80
2023-05-03T21:51:21.714Z,12.80
2023-05-03T21:53:52.710Z,15.30
2023-05-03T21:56:23.049Z,13.40
2023-05-03T21:58:53.468Z,15.00
2023-05-03T22:01:23.951Z,15.60
2023-05-03T22:03:54.482Z,12.00
2023-05-03T22:06:25.176Z,14.10
2023-05-03T22:08:55.484Z,13.60
2023-05-03T22:11:26.010Z,11.10
2023-05-03T22:14:07.379Z,9.30
2023-05-03T22:16:42.175Z,9.20
2023-05-03T22:19:13.322Z,11.50
2023-05-03T22:21:43.695Z,13.60
2023-05-03T22:24:14.049Z,11.10
2023-05-03T22:26:44.344Z,11.70
2023-05-03T22:29:14.760Z,10.90
2023-05-03T22:31:45.264Z,11.30
2023-05-03T22:34:16.036Z,10.40
2023-05-03T22:36:46.996Z,9.30
2023-05-03T22:39:17.513Z,11.20
2023-05-03T22:41:48.084Z,9.00
2023-05-03T22:44:18.371Z,9.30
2023-05-03T22:46:48.807Z,7.80
2023-05-03T22:49:19.136Z,9.50
2023-05-03T22:51:49.544Z,8.80
2023-05-03T22:54:20.217Z,10.90
2023-05-03T22:56:51.052Z,8.60
2023-05-03T22:59:21.726Z,8.80
2023-05-03T23:01:52.149Z,8.70
2023-05-03T23:04:22.580Z,9.40
2023-05-03T23:06:53.462Z,10.80
2023-05-03T23:09:23.750Z,8.30
2023-05-03T23:11:55.161Z,8.50
2023-05-03T23:14:25.576Z,8.70
2023-05-03T23:16:55.971Z,7.10
2023-05-03T23:19:26.527Z,8.30
2023-05-03T23:21:56.956Z,8.00
2023-05-03T23:24:27.338Z,7.90
2023-05-03T23:26:57.627Z,8.30
2023-05-03T23:29:28.543Z,7.30
2023-05-03T23:31:59.463Z,8.30
2023-05-03T23:34:30.595Z,11.70
2023-05-03T23:37:00.894Z,10.20
2023-05-03T23:39:31.379Z,9.60
2023-05-03T23:42:01.729Z,8.50
2023-05-03T23:44:46.495Z,8.90
2023-05-03T23:47:22.481Z,8.00
2023-05-03T23:49:53.157Z,7.10
2023-05-03T23:52:23.537Z,6.40
2023-05-03T23:54:54.052Z,9.90
2023-05-03T23:57:24.606Z,8.90
2023-05-03T23:59:55.031Z,11.40
